Time;durP1;ratioP1;P1;durP2;ratioP2;P2;SDS_P1;SDS_P2;PMS_P1;PMS_P2;Temp;Humidity;BMP_temperature;BMP_pressure;BME280_temperature;BME280_humidity;BME280_pressure;Samples;Min_cycle;Max_cycle;Signal;HPM_P1;HPM_P2
2022/04/02 00:00:17;;;;;;;1.45;0.50;;;19.90;47.80;;;;;;4540199;31;20401;-68
2022/04/02 00:02:45;;;;;;;1.23;0.40;;;19.80;47.80;;;;;;4525932;31;20436;-68
2022/04/02 00:05:11;;;;;;;1.88;0.60;;;19.80;47.80;;;;;;4540037;31;20134;-68
2022/04/02 00:07:37;;;;;;;0.85;0.30;;;19.80;47.80;;;;;;4540508;31;20139;-68
2022/04/02 00:10:05;;;;;;;1.50;0.40;;;19.80;47.80;;;;;;4525590;31;20080;-68
2022/04/02 00:12:31;;;;;;;2.50;0.47;;;19.80;47.80;;;;;;4540203;31;20060;-68
2022/04/02 00:14:57;;;;;;;1.08;0.40;;;19.80;47.80;;;;;;4540134;31;20213;-68
2022/04/02 00:17:23;;;;;;;1.50;0.52;;;19.80;47.80;;;;;;4540126;31;20086;-68
2022/04/02 00:19:49;;;;;;;2.20;0.55;;;19.80;47.90;;;;;;4539545;31;20167;-68
2022/04/02 00:22:15;;;;;;;1.02;0.40;;;19.70;47.80;;;;;;4540330;31;20129;-68
2022/04/02 00:24:41;;;;;;;1.52;0.65;;;19.70;47.80;;;;;;4540317;31;20156;-68
2022/04/02 00:27:07;;;;;;;1.17;0.45;;;19.70;47.80;;;;;;4539738;31;20071;-68
2022/04/02 00:29:34;;;;;;;1.33;0.40;;;19.70;47.80;;;;;;4540062;31;20152;-68
2022/04/02 00:32:00;;;;;;;0.63;0.40;;;19.70;47.80;;;;;;4540276;31;20528;-68
2022/04/02 00:34:26;;;;;;;2.38;0.45;;;19.70;47.90;;;;;;4540167;31;20489;-68
2022/04/02 00:36:52;;;;;;;0.80;0.40;;;19.60;47.80;;;;;;4539918;31;20225;-68
2022/04/02 00:39:20;;;;;;;1.15;0.40;;;19.60;47.90;;;;;;4531481;31;20076;-68
2022/04/02 00:41:46;;;;;;;0.98;0.45;;;19.60;47.90;;;;;;4514725;31;20541;-68
2022/04/02 00:44:13;;;;;;;1.45;0.50;;;19.60;47.90;;;;;;4530492;31;20160;-68
2022/04/02 00:46:42;;;;;;;1.17;0.55;;;19.60;47.90;;;;;;4512292;31;20387;-68
2022/04/02 00:49:09;;;;;;;1.50;0.40;;;19.60;47.90;;;;;;4522348;31;20088;-68
2022/04/02 00:51:42;;;;;;;1.55;0.50;;;19.50;47.80;;;;;;4522208;31;20091;-68
2022/04/02 00:54:34;;;;;;;1.27;0.40;;;19.50;47.90;;;;;;4522855;31;20181;-68
2022/04/02 00:57:01;;;;;;;2.60;0.60;;;19.50;47.80;;;;;;4518561;31;20653;-68
2022/04/02 00:59:27;;;;;;;0.43;0.30;;;19.50;47.90;;;;;;4522466;31;20155;-68
2022/04/02 01:01:53;;;;;;;2.25;0.50;;;19.50;47.90;;;;;;4523851;31;20076;-68
2022/04/02 01:04:19;;;;;;;1.67;0.43;;;19.50;47.90;;;;;;4507802;31;20708;-68
2022/04/02 01:06:45;;;;;;;0.88;0.50;;;19.50;48.00;;;;;;4522173;31;20094;-68
2022/04/02 01:09:11;;;;;;;0.95;0.38;;;19.40;47.90;;;;;;4522225;31;20169;-68
2022/04/02 01:11:42;;;;;;;0.88;0.30;;;19.40;47.90;;;;;;4523063;31;20113;-68
2022/04/02 01:14:09;;;;;;;2.20;0.52;;;19.40;47.90;;;;;;4524103;31;20135;-67
2022/04/02 01:16:35;;;;;;;1.63;0.63;;;19.40;47.90;;;;;;4523493;31;20498;-68
2022/04/02 01:19:01;;;;;;;1.70;0.40;;;19.40;47.90;;;;;;4523135;31;20081;-68
2022/04/02 01:21:29;;;;;;;0.85;0.50;;;19.40;48.00;;;;;;4523113;31;20116;-68
2022/04/02 01:23:59;;;;;;;0.77;0.40;;;19.40;48.00;;;;;;4523424;31;20089;-68
2022/04/02 01:26:26;;;;;;;0.88;0.40;;;19.40;48.00;;;;;;4523957;31;20173;-68
2022/04/02 01:28:58;;;;;;;1.30;0.32;;;19.30;48.00;;;;;;4508993;31;20085;-68
2022/04/02 01:31:25;;;;;;;1.50;0.30;;;19.30;48.00;;;;;;4523725;31;20111;-68
2022/04/02 01:33:53;;;;;;;1.20;0.35;;;19.30;48.00;;;;;;4523122;31;20096;-68
2022/04/02 01:36:20;;;;;;;0.93;0.40;;;19.30;48.00;;;;;;4523354;31;20181;-67
2022/04/02 01:38:47;;;;;;;1.00;0.40;;;19.30;48.00;;;;;;4523216;31;20087;-68
2022/04/02 01:41:14;;;;;;;0.93;0.40;;;19.30;48.00;;;;;;4523170;31;20065;-68
2022/04/02 01:43:40;;;;;;;1.35;0.40;;;19.30;48.00;;;;;;4523272;31;20222;-68
2022/04/02 01:46:07;;;;;;;1.02;0.32;;;19.20;48.00;;;;;;4523550;31;20226;-68
2022/04/02 01:48:33;;;;;;;1.00;0.40;;;19.20;48.00;;;;;;4523050;31;20077;-68
2022/04/02 01:50:59;;;;;;;1.05;0.32;;;19.20;48.00;;;;;;4522848;31;20506;-68
2022/04/02 01:53:26;;;;;;;0.50;0.20;;;19.20;48.00;;;;;;4508841;31;20387;-68
2022/04/02 01:55:52;;;;;;;1.38;0.45;;;19.20;48.00;;;;;;4523199;31;20068;-68
2022/04/02 01:58:19;;;;;;;2.78;0.28;;;19.20;48.00;;;;;;4508702;31;20095;-68
2022/04/02 02:00:49;;;;;;;1.20;0.50;;;19.20;48.00;;;;;;4508888;31;20104;-68
2022/04/02 02:03:15;;;;;;;0.73;0.30;;;19.20;48.00;;;;;;4523154;31;20300;-68
2022/04/02 02:05:41;;;;;;;1.17;0.28;;;19.20;48.00;;;;;;4523287;31;20064;-68
2022/04/02 02:08:08;;;;;;;0.98;0.38;;;19.10;47.90;;;;;;4523103;31;20108;-67
2022/04/02 02:10:33;;;;;;;1.08;0.30;;;19.10;48.00;;;;;;4523326;31;20094;-68
2022/04/02 02:13:00;;;;;;;0.73;0.40;;;19.10;48.00;;;;;;4523397;31;20076;-68
2022/04/02 02:15:27;;;;;;;1.17;0.40;;;19.10;48.00;;;;;;4526246;31;20222;-68
2022/04/02 02:17:53;;;;;;;0.60;0.30;;;19.10;48.00;;;;;;4525887;31;20088;-66
2022/04/02 02:20:19;;;;;;;1.33;0.40;;;19.10;48.10;;;;;;4525471;31;20163;-67
2022/04/02 02:22:47;;;;;;;1.05;0.30;;;19.10;48.10;;;;;;4525596;31;20092;-68
2022/04/02 02:25:14;;;;;;;0.77;0.40;;;19.10;48.10;;;;;;4525842;31;20076;-68
2022/04/02 02:27:42;;;;;;;3.33;0.40;;;19.10;48.10;;;;;;4511566;31;20153;-68
2022/04/02 02:30:10;;;;;;;1.58;0.40;;;19.00;48.10;;;;;;4525866;31;20132;-68
2022/04/02 02:32:39;;;;;;;0.55;0.28;;;19.00;48.00;;;;;;4525962;31;20087;-68
2022/04/02 02:38:05;;;;;;;0.82;0.20;;;19.00;48.00;;;;;;4525962;31;20083;-68
2022/04/02 02:40:32;;;;;;;2.25;0.30;;;19.00;48.00;;;;;;4525316;31;20072;-68
2022/04/02 02:42:58;;;;;;;0.70;0.30;;;19.00;48.10;;;;;;4524945;31;20414;-68
2022/04/02 02:45:24;;;;;;;0.55;0.20;;;19.00;48.10;;;;;;4524892;31;20189;-68
2022/04/02 02:47:51;;;;;;;0.70;0.38;;;18.90;48.00;;;;;;4510261;31;20072;-68
2022/04/02 02:50:17;;;;;;;0.73;0.20;;;19.00;48.10;;;;;;4524417;31;20134;-68
2022/04/02 02:52:43;;;;;;;0.88;0.20;;;18.90;48.10;;;;;;4524780;31;20210;-68
2022/04/02 02:55:10;;;;;;;0.60;0.17;;;18.90;48.10;;;;;;4524651;31;20136;-69
2022/04/02 02:57:40;;;;;;;1.95;0.30;;;18.90;48.10;;;;;;4524573;31;20064;-68
2022/04/02 03:00:10;;;;;;;1.05;0.43;;;18.90;48.10;;;;;;4526690;31;20068;-68
2022/04/02 03:02:37;;;;;;;1.33;0.30;;;18.90;49.00;;;;;;4524672;31;20126;-67
2022/04/02 03:05:15;;;;;;;0.50;0.30;;;18.90;48.10;;;;;;4526658;31;20108;-68
2022/04/02 03:07:48;;;;;;;0.93;0.30;;;18.80;48.00;;;;;;4525169;31;20072;-68
2022/04/02 03:10:19;;;;;;;0.73;0.40;;;18.80;48.00;;;;;;4510755;31;20072;-68
2022/04/02 03:12:47;;;;;;;1.05;0.20;;;18.80;48.00;;;;;;4525834;31;20526;-68
2022/04/02 03:15:15;;;;;;;0.50;0.22;;;18.80;48.00;;;;;;4524998;31;20064;-68
2022/04/02 03:17:43;;;;;;;0.35;0.20;;;18.80;48.00;;;;;;4525040;31;20616;-68
2022/04/02 03:20:11;;;;;;;0.50;0.28;;;18.80;48.00;;;;;;4510004;31;20134;-68
2022/04/02 03:22:41;;;;;;;0.63;0.30;;;18.70;47.90;;;;;;4525126;31;20135;-68
2022/04/02 03:25:12;;;;;;;0.63;0.30;;;18.80;48.00;;;;;;4524522;31;20112;-68
2022/04/02 03:27:40;;;;;;;0.60;0.20;;;18.70;47.90;;;;;;4524503;31;20188;-68
2022/04/02 03:30:11;;;;;;;0.65;0.40;;;18.70;47.90;;;;;;4524536;31;20088;-68
2022/04/02 03:32:38;;;;;;;0.85;0.30;;;18.70;47.90;;;;;;4524799;31;20139;-68
2022/04/02 03:35:05;;;;;;;0.82;0.30;;;18.70;47.90;;;;;;4524484;31;20188;-68
2022/04/02 03:37:31;;;;;;;1.52;0.20;;;18.70;47.90;;;;;;4524428;31;20057;-68
2022/04/02 03:39:58;;;;;;;0.93;0.30;;;18.70;47.90;;;;;;4524421;31;20184;-68
2022/04/02 03:42:25;;;;;;;1.30;0.40;;;18.60;47.80;;;;;;4524698;31;20124;-68
2022/04/02 03:44:51;;;;;;;1.15;0.40;;;18.70;47.90;;;;;;4524637;31;20072;-68
2022/04/02 03:47:22;;;;;;;0.57;0.30;;;18.70;47.90;;;;;;4524635;31;20108;-68
2022/04/02 03:49:49;;;;;;;1.23;0.35;;;18.60;47.80;;;;;;4524466;31;20096;-67
2022/04/02 03:52:15;;;;;;;0.73;0.30;;;18.60;47.80;;;;;;4509881;31;20068;-68
2022/04/02 03:54:42;;;;;;;0.82;0.30;;;18.60;47.80;;;;;;4524600;31;20077;-68
2022/04/02 03:57:12;;;;;;;1.15;0.30;;;18.60;47.80;;;;;;4524329;31;20179;-68
2022/04/02 03:59:40;;;;;;;0.85;0.28;;;18.60;47.80;;;;;;4524374;31;20080;-68
2022/04/02 04:02:07;;;;;;;1.33;0.45;;;18.60;47.80;;;;;;4524196;31;20355;-68
2022/04/02 04:04:34;;;;;;;0.52;0.30;;;18.60;47.80;;;;;;4524499;31;20072;-68
2022/04/02 04:07:00;;;;;;;0.80;0.28;;;18.60;47.80;;;;;;4524185;31;20083;-68
2022/04/02 04:09:26;;;;;;;0.63;0.28;;;18.60;47.80;;;;;;4524520;31;20095;-68
2022/04/02 04:11:52;;;;;;;0.50;0.30;;;18.50;47.80;;;;;;4524184;31;20065;-68
2022/04/02 04:14:19;;;;;;;0.98;0.30;;;18.50;47.80;;;;;;4524091;31;20549;-68
2022/04/02 04:16:46;;;;;;;0.40;0.30;;;18.50;47.80;;;;;;4509920;31;20088;-68
2022/04/02 04:19:13;;;;;;;1.25;0.30;;;18.50;47.80;;;;;;4523942;31;20084;-68
2022/04/02 04:21:40;;;;;;;1.48;0.30;;;18.50;47.80;;;;;;4509076;31;20080;-67
2022/04/02 04:24:07;;;;;;;0.43;0.30;;;18.50;47.80;;;;;;4523731;31;20112;-67
2022/04/02 04:26:33;;;;;;;0.50;0.20;;;18.50;47.80;;;;;;4523912;31;20217;-67
2022/04/02 04:28:59;;;;;;;1.40;0.20;;;18.50;47.80;;;;;;4523680;31;20409;-68
2022/04/02 04:31:25;;;;;;;0.47;0.30;;;18.40;47.70;;;;;;4523873;31;20065;-68
2022/04/02 04:33:51;;;;;;;1.05;0.30;;;18.40;47.70;;;;;;4523869;31;20206;-67
2022/04/02 04:36:18;;;;;;;0.63;0.30;;;18.40;47.70;;;;;;4508906;31;20246;-68
2022/04/02 04:38:45;;;;;;;1.17;0.40;;;18.40;47.70;;;;;;4523824;31;20218;-67
2022/04/02 04:41:12;;;;;;;0.32;0.30;;;18.40;47.70;;;;;;4509265;31;20575;-68
2022/04/02 04:43:41;;;;;;;1.08;0.20;;;18.40;47.80;;;;;;4496797;31;20098;-68
2022/04/02 04:46:08;;;;;;;0.50;0.22;;;18.30;47.70;;;;;;4523746;31;20094;-68
2022/04/02 04:48:35;;;;;;;1.10;0.32;;;18.40;47.70;;;;;;4523723;31;20084;-68
2022/04/02 04:51:02;;;;;;;0.95;0.30;;;18.40;47.70;;;;;;4523413;31;20491;-68
2022/04/02 04:53:28;;;;;;;0.13;0.10;;;18.40;47.70;;;;;;4523643;31;20417;-68
2022/04/02 04:55:54;;;;;;;1.02;0.40;;;18.40;47.80;;;;;;4509046;31;20417;-68
2022/04/02 04:58:21;;;;;;;0.82;0.40;;;18.30;47.70;;;;;;4523285;31;20083;-67
2022/04/02 05:00:47;;;;;;;0.80;0.30;;;18.30;47.70;;;;;;4509143;31;20092;-68
2022/04/02 05:03:13;;;;;;;0.30;0.22;;;18.30;47.70;;;;;;4523808;31;20083;-68
2022/04/02 05:05:40;;;;;;;1.27;0.20;;;18.30;47.70;;;;;;4523802;31;20068;-68
2022/04/02 05:08:06;;;;;;;0.80;0.20;;;18.30;47.70;;;;;;4523584;31;20077;-68
2022/04/02 05:10:38;;;;;;;0.30;0.20;;;18.30;47.70;;;;;;4523526;31;20091;-68
2022/04/02 05:13:04;;;;;;;0.70;0.20;;;18.30;47.70;;;;;;4523506;31;20524;-68
2022/04/02 05:15:30;;;;;;;0.63;0.20;;;18.30;47.70;;;;;;4523504;31;20108;-68
2022/04/02 05:17:56;;;;;;;0.90;0.32;;;18.20;47.70;;;;;;4523503;31;20149;-68
2022/04/02 05:20:22;;;;;;;0.25;0.22;;;18.20;47.70;;;;;;4523238;31;20128;-67
2022/04/02 05:22:48;;;;;;;0.73;0.20;;;18.20;47.70;;;;;;4523192;31;20110;-67
2022/04/02 05:25:14;;;;;;;0.45;0.20;;;18.20;47.70;;;;;;4523645;31;20080;-68
2022/04/02 05:27:40;;;;;;;2.70;0.52;;;18.20;47.70;;;;;;4523512;31;20229;-67
2022/04/02 05:30:07;;;;;;;0.85;0.20;;;18.20;47.70;;;;;;4523105;31;20527;-68
2022/04/02 05:32:33;;;;;;;0.93;0.20;;;18.20;47.70;;;;;;4523181;31;20214;-68
2022/04/02 05:34:59;;;;;;;0.60;0.20;;;18.20;47.70;;;;;;4508984;31;20071;-67
2022/04/02 05:37:25;;;;;;;0.70;0.30;;;18.20;47.70;;;;;;4523125;31;20500;-68
2022/04/02 05:39:52;;;;;;;1.23;0.40;;;18.20;47.70;;;;;;4523360;31;20237;-68
2022/04/02 05:42:18;;;;;;;0.95;0.30;;;18.20;47.70;;;;;;4507317;31;20118;-68
2022/04/02 05:44:44;;;;;;;0.65;0.30;;;18.10;47.60;;;;;;4507356;31;20073;-68
2022/04/02 05:47:10;;;;;;;0.88;0.47;;;18.10;47.60;;;;;;4508487;31;20061;-68
2022/04/02 05:49:36;;;;;;;0.47;0.20;;;18.10;47.60;;;;;;4508931;31;20379;-69
2022/04/02 05:52:04;;;;;;;0.68;0.22;;;18.10;47.60;;;;;;4510249;31;20089;-68
2022/04/02 05:54:31;;;;;;;1.10;0.40;;;18.10;47.70;;;;;;4510074;31;20093;-68
2022/04/02 05:56:57;;;;;;;0.32;0.20;;;18.10;47.70;;;;;;4510571;31;20141;-68
2022/04/02 05:59:24;;;;;;;0.40;0.15;;;18.10;47.70;;;;;;4508807;31;20087;-68
2022/04/02 06:01:50;;;;;;;0.90;0.25;;;18.00;47.60;;;;;;4510206;31;20241;-68
2022/04/02 06:04:16;;;;;;;0.85;0.30;;;18.00;47.70;;;;;;4508913;31;20073;-68
2022/04/02 06:06:42;;;;;;;0.68;0.20;;;18.00;47.70;;;;;;4510148;31;20084;-67
2022/04/02 06:09:08;;;;;;;1.02;0.40;;;18.00;47.60;;;;;;4510032;31;20398;-68
2022/04/02 06:11:34;;;;;;;0.60;0.32;;;18.00;47.70;;;;;;4509064;31;20057;-68
2022/04/02 06:14:00;;;;;;;0.60;0.28;;;18.00;47.60;;;;;;4510195;31;20513;-68
2022/04/02 06:16:26;;;;;;;0.98;0.25;;;18.00;47.60;;;;;;4508617;31;20057;-68
2022/04/02 06:18:52;;;;;;;0.93;0.28;;;18.00;47.70;;;;;;4509847;31;20158;-68
2022/04/02 06:21:19;;;;;;;0.50;0.20;;;18.00;47.70;;;;;;4509735;31;20127;-68
2022/04/02 06:23:45;;;;;;;0.38;0.20;;;18.00;47.70;;;;;;4509633;31;20068;-68
2022/04/02 06:26:11;;;;;;;0.28;0.20;;;18.00;47.70;;;;;;4509710;31;20071;-68
2022/04/02 06:28:37;;;;;;;0.55;0.30;;;18.00;47.70;;;;;;4509549;31;20077;-68
2022/04/02 06:31:04;;;;;;;0.60;0.32;;;17.90;47.60;;;;;;4509749;31;20081;-68
2022/04/02 06:33:32;;;;;;;0.52;0.32;;;17.90;47.60;;;;;;4509978;31;20254;-67
2022/04/02 06:36:00;;;;;;;0.55;0.20;;;17.90;47.60;;;;;;4508840;31;20131;-67
2022/04/02 06:38:26;;;;;;;1.27;0.40;;;17.90;47.60;;;;;;4509568;31;20081;-67
2022/04/02 06:40:53;;;;;;;0.82;0.40;;;17.90;47.70;;;;;;4515998;31;20076;-67
2022/04/02 06:43:20;;;;;;;5.45;0.28;;;17.90;47.60;;;;;;4525444;31;20099;-70
2022/04/02 06:45:46;;;;;;;3.55;0.50;;;17.90;47.60;;;;;;4525322;31;20073;-69
2022/04/02 06:48:13;;;;;;;0.60;0.30;;;17.90;47.10;;;;;;4510842;31;20114;-69
2022/04/02 06:50:40;;;;;;;0.55;0.43;;;17.90;46.70;;;;;;4525081;31;20548;-69
2022/04/02 06:53:06;;;;;;;0.70;0.40;;;17.80;46.30;;;;;;4511011;31;20080;-69
2022/04/02 06:55:32;;;;;;;0.88;0.40;;;17.80;46.30;;;;;;4510791;31;20087;-69
2022/04/02 06:57:59;;;;;;;0.55;0.40;;;17.80;46.60;;;;;;4525208;31;20200;-70
2022/04/02 07:00:25;;;;;;;0.43;0.25;;;17.80;46.70;;;;;;4524961;31;20091;-68
2022/04/02 07:02:51;;;;;;;1.85;0.60;;;17.80;46.80;;;;;;4525258;31;20138;-69
2022/04/02 07:05:18;;;;;;;0.30;0.28;;;17.80;46.80;;;;;;4497621;31;20095;-69
2022/04/02 07:07:46;;;;;;;1.77;0.50;;;17.80;46.90;;;;;;4525176;31;20256;-69
2022/04/02 07:10:13;;;;;;;2.22;0.60;;;17.80;46.90;;;;;;4525196;31;20293;-69
2022/04/02 07:12:39;;;;;;;0.57;0.20;;;17.80;47.00;;;;;;4525363;31;20197;-70
2022/04/02 07:15:07;;;;;;;1.30;0.63;;;17.70;46.90;;;;;;4524872;31;20139;-69
2022/04/02 07:17:34;;;;;;;12.45;0.63;;;17.80;47.00;;;;;;4524720;31;20418;-69
2022/04/02 07:20:01;;;;;;;0.50;0.30;;;17.80;47.00;;;;;;4524297;31;20088;-69
2022/04/02 07:22:27;;;;;;;1.58;0.40;;;17.80;46.90;;;;;;4524948;31;20393;-69
2022/04/02 07:24:54;;;;;;;1.02;0.50;;;17.80;46.70;;;;;;4524894;31;20504;-69
2022/04/02 07:27:26;;;;;;;0.47;0.30;;;17.90;46.60;;;;;;4524835;31;20156;-68
2022/04/02 07:29:53;;;;;;;0.52;0.20;;;18.00;46.40;;;;;;4525032;31;20214;-69
2022/04/02 07:32:20;;;;;;;1.00;0.32;;;18.20;46.00;;;;;;4524944;31;20214;-69
2022/04/02 07:34:46;;;;;;;1.48;0.50;;;18.30;45.70;;;;;;4524808;31;20092;-69
2022/04/02 07:37:31;;;;;;;1.13;0.40;;;18.40;45.50;;;;;;4510066;31;20189;-69
2022/04/02 07:40:06;;;;;;;1.33;0.43;;;18.50;45.30;;;;;;4524480;31;20157;-69
2022/04/02 07:42:37;;;;;;;0.75;0.30;;;18.70;45.00;;;;;;4524965;31;20073;-69
2022/04/02 07:45:08;;;;;;;1.98;0.35;;;18.80;44.80;;;;;;4524613;31;20222;-70
2022/04/02 07:47:39;;;;;;;2.08;0.60;;;18.90;44.50;;;;;;4510024;31;20081;-71
2022/04/02 07:50:15;;;;;;;0.88;0.38;;;19.10;44.30;;;;;;4524431;31;20261;-69
2022/04/02 07:52:47;;;;;;;1.98;0.30;;;19.20;44.00;;;;;;4510311;31;20091;-68
2022/04/02 07:55:13;;;;;;;2.53;0.40;;;19.40;43.80;;;;;;4524700;31;20084;-69
2022/04/02 07:57:41;;;;;;;2.80;0.25;;;19.50;43.50;;;;;;4524360;31;20084;-69
2022/04/02 08:00:12;;;;;;;0.63;0.20;;;19.70;43.40;;;;;;4524290;31;20528;-69
2022/04/02 08:02:42;;;;;;;0.57;0.30;;;19.80;43.20;;;;;;4524141;31;20120;-70
2022/04/02 08:05:10;;;;;;;0.75;0.40;;;19.90;42.90;;;;;;4524495;31;20319;-69
2022/04/02 08:07:39;;;;;;;1.65;0.30;;;20.00;42.80;;;;;;4523977;31;20222;-69
2022/04/02 08:10:10;;;;;;;1.17;0.35;;;20.10;42.60;;;;;;4524464;31;20358;-69
2022/04/02 08:12:38;;;;;;;1.13;0.35;;;20.20;42.50;;;;;;4524595;31;20292;-69
2022/04/02 08:15:06;;;;;;;1.60;0.40;;;20.30;42.30;;;;;;4524144;31;20072;-70
2022/04/02 08:17:32;;;;;;;2.15;0.40;;;20.40;42.20;;;;;;4496415;31;20088;-69
2022/04/02 08:20:00;;;;;;;0.93;0.20;;;20.50;42.00;;;;;;4523646;31;20205;-70
2022/04/02 08:22:27;;;;;;;2.15;0.30;;;20.60;41.80;;;;;;4524182;31;20212;-69
2022/04/02 08:24:53;;;;;;;1.17;0.30;;;20.70;41.60;;;;;;4524221;31;20068;-69
2022/04/02 08:27:30;;;;;;;2.38;0.30;;;20.80;41.50;;;;;;4524157;31;20112;-69
2022/04/02 08:30:06;;;;;;;0.93;0.30;;;20.90;41.40;;;;;;4524243;31;20103;-69
2022/04/02 08:32:48;;;;;;;1.17;0.20;;;21.00;41.30;;;;;;4524249;31;20076;-69
2022/04/02 08:35:17;;;;;;;0.73;0.25;;;21.10;41.10;;;;;;4523636;31;20087;-69
2022/04/02 08:38:05;;;;;;;0.35;0.20;;;21.20;40.90;;;;;;4523588;31;20103;-69
2022/04/02 08:41:15;;;;;;;0.60;0.20;;;21.20;40.80;;;;;;4519992;31;20092;-70
2022/04/02 08:44:04;;;;;;;0.98;0.32;;;21.40;40.80;;;;;;4539396;31;20202;-69
2022/04/02 08:46:56;;;;;;;1.02;0.40;;;21.40;40.60;;;;;;4539866;31;20600;-69
2022/04/02 08:49:57;;;;;;;4.50;0.45;;;21.50;40.50;;;;;;4539175;31;20075;-69
2022/04/02 08:52:42;;;;;;;0.50;0.30;;;21.40;40.60;;;;;;4539842;31;20091;-69
2022/04/02 08:55:18;;;;;;;0.57;0.40;;;21.30;41.70;;;;;;4539545;31;20115;-69
2022/04/02 08:58:10;;;;;;;2.15;0.40;;;21.30;41.00;;;;;;4534519;31;20088;-69
2022/04/02 09:00:52;;;;;;;0.88;0.30;;;21.20;41.20;;;;;;4509283;31;20084;-70
2022/04/02 09:03:48;;;;;;;0.47;0.20;;;21.10;41.50;;;;;;4523695;31;20076;-70
2022/04/02 09:06:23;;;;;;;0.63;0.40;;;21.00;41.80;;;;;;4523838;31;20091;-70
2022/04/02 09:09:04;;;;;;;2.53;0.40;;;20.80;42.10;;;;;;4523573;31;20065;-70
2022/04/02 09:11:53;;;;;;;1.23;0.43;;;20.70;42.40;;;;;;4523509;31;20613;-69
2022/04/02 09:14:56;;;;;;;1.63;0.40;;;20.60;42.70;;;;;;4523435;31;20094;-69
2022/04/02 09:18:16;;;;;;;3.78;0.57;;;20.50;42.40;;;;;;4523809;31;20214;-68
2022/04/02 09:21:00;;;;;;;4.68;0.63;;;20.30;42.60;;;;;;4442389;32;20093;-69
2022/04/02 09:24:02;;;;;;;0.63;0.30;;;20.20;42.90;;;;;;4519156;31;20091;-69
2022/04/02 09:26:43;;;;;;;4.20;0.60;;;20.10;43.10;;;;;;4525376;31;20139;-70
2022/04/02 09:29:14;;;;;;;1.17;0.50;;;20.00;43.40;;;;;;4541283;31;20134;-69
2022/04/02 09:32:11;;;;;;;1.58;0.47;;;19.90;43.60;;;;;;4542190;31;20078;-68
2022/04/02 09:34:59;;;;;;;1.67;0.52;;;19.90;43.70;;;;;;4527922;31;20068;-67
2022/04/02 09:37:36;;;;;;;0.93;0.30;;;19.80;44.00;;;;;;4515921;31;20138;-68
2022/04/02 09:40:08;;;;;;;7.47;0.50;;;19.80;44.30;;;;;;4542409;31;20523;-68
2022/04/02 09:42:42;;;;;;;3.13;0.55;;;19.70;44.40;;;;;;4526492;31;20281;-70
2022/04/02 09:45:12;;;;;;;2.22;0.70;;;19.70;44.60;;;;;;4526155;31;20448;-69
2022/04/02 09:48:10;;;;;;;3.58;0.50;;;19.60;44.70;;;;;;4526033;31;20076;-69
2022/04/02 09:50:36;;;;;;;1.50;0.60;;;19.60;44.70;;;;;;4526432;31;20508;-69
2022/04/02 09:53:10;;;;;;;1.00;0.38;;;19.60;44.90;;;;;;4526056;31;20080;-70
2022/04/02 09:55:48;;;;;;;1.35;0.47;;;19.50;44.90;;;;;;4526121;31;20061;-70
2022/04/02 09:58:14;;;;;;;1.63;0.55;;;19.50;45.00;;;;;;4526038;31;20068;-69
2022/04/02 10:01:01;;;;;;;2.03;0.40;;;19.50;45.10;;;;;;4540125;31;20121;-69
2022/04/02 10:03:30;;;;;;;1.80;0.30;;;19.40;45.20;;;;;;4541955;31;20532;-68
2022/04/02 10:06:10;;;;;;;2.95;0.40;;;19.40;45.30;;;;;;4541952;31;20064;-68
2022/04/02 10:09:03;;;;;;;1.75;0.60;;;19.40;45.30;;;;;;4527286;31;20090;-68
2022/04/02 10:11:30;;;;;;;0.80;0.45;;;19.40;45.50;;;;;;4540013;31;20092;-68
2022/04/02 10:14:01;;;;;;;5.45;0.57;;;19.40;45.50;;;;;;4538688;31;20088;-68
2022/04/02 10:16:28;;;;;;;4.07;0.45;;;19.40;45.60;;;;;;4525207;31;20292;-67
2022/04/02 10:19:00;;;;;;;2.85;0.52;;;19.30;45.40;;;;;;4538583;31;20073;-69
2022/04/02 10:21:29;;;;;;;1.92;0.63;;;19.30;45.90;;;;;;4524828;31;20497;-69
2022/04/02 10:24:16;;;;;;;4.40;0.50;;;19.30;44.80;;;;;;4525024;31;20094;-69
2022/04/02 10:26:51;;;;;;;2.40;0.30;;;19.30;44.80;;;;;;4541045;31;20147;-70
2022/04/02 10:29:35;;;;;;;1.75;0.60;;;19.20;44.90;;;;;;4539706;31;20092;-69
2022/04/02 10:32:16;;;;;;;3.38;0.60;;;19.20;45.00;;;;;;4536559;31;20094;-69
2022/04/02 10:35:02;;;;;;;2.80;0.30;;;19.20;45.00;;;;;;4533849;31;20151;-70
2022/04/02 10:37:42;;;;;;;1.25;0.40;;;19.20;45.10;;;;;;4528499;31;20127;-69
2022/04/02 10:40:15;;;;;;;2.92;0.40;;;19.20;45.30;;;;;;4525188;31;20183;-69
2022/04/02 10:42:51;;;;;;;4.25;0.55;;;19.20;45.30;;;;;;4540829;31;20160;-69
2022/04/02 10:45:21;;;;;;;1.10;0.32;;;19.20;45.40;;;;;;4540816;31;20068;-69
2022/04/02 10:47:48;;;;;;;2.80;0.47;;;19.20;45.40;;;;;;4540623;31;20528;-69
2022/04/02 10:50:18;;;;;;;1.02;0.40;;;19.10;45.40;;;;;;4525791;31;20119;-70
2022/04/02 10:52:47;;;;;;;2.63;0.45;;;19.10;45.50;;;;;;4540623;31;20119;-70
2022/04/02 10:55:20;;;;;;;1.05;0.40;;;19.10;45.50;;;;;;4540511;31;20226;-70
2022/04/02 10:57:46;;;;;;;0.95;0.45;;;19.10;45.50;;;;;;4540501;31;20168;-69
2022/04/02 11:00:13;;;;;;;1.35;0.45;;;19.10;45.50;;;;;;4540417;31;20574;-70
2022/04/02 11:02:44;;;;;;;1.98;0.38;;;19.10;45.60;;;;;;4540396;31;20189;-69
2022/04/02 11:05:13;;;;;;;1.85;0.40;;;19.10;45.60;;;;;;4525933;31;20184;-71
2022/04/02 11:07:44;;;;;;;5.72;0.40;;;19.10;45.70;;;;;;4534051;31;20120;-69
2022/04/02 11:10:18;;;;;;;1.35;0.40;;;19.10;45.70;;;;;;4524289;31;20168;-70
2022/04/02 11:12:46;;;;;;;1.73;0.60;;;19.10;45.70;;;;;;4533068;31;20491;-69
2022/04/02 11:15:23;;;;;;;1.75;0.50;;;19.10;45.70;;;;;;4527435;31;20143;-69
2022/04/02 11:17:52;;;;;;;1.30;0.55;;;19.10;45.80;;;;;;4524232;31;20091;-68
2022/04/02 11:20:26;;;;;;;0.50;0.30;;;19.10;45.80;;;;;;4538701;31;20159;-76
2022/04/02 11:22:54;;;;;;;2.05;0.43;;;19.10;45.90;;;;;;4525548;31;20536;-78
2022/04/02 11:25:34;;;;;;;3.50;0.60;;;19.10;45.80;;;;;;4528868;31;20497;-79
2022/04/02 11:28:23;;;;;;;1.35;0.30;;;19.10;45.60;;;;;;4538779;31;20095;-76
2022/04/02 11:30:52;;;;;;;3.42;0.50;;;19.10;45.70;;;;;;4540439;31;20590;-69
2022/04/02 11:33:25;;;;;;;1.40;0.30;;;19.20;45.70;;;;;;4540589;31;20068;-69
2022/04/02 11:36:06;;;;;;;2.45;0.40;;;19.20;45.50;;;;;;4526492;31;20182;-68
2022/04/02 11:38:47;;;;;;;4.82;0.30;;;19.30;45.30;;;;;;4540978;31;20068;-68
2022/04/02 11:41:24;;;;;;;2.85;0.43;;;19.40;45.00;;;;;;4540646;31;20068;-70
2022/04/02 11:44:02;;;;;;;2.72;0.57;;;19.50;44.80;;;;;;4540444;31;20064;-69
2022/04/02 11:46:28;;;;;;;2.40;0.50;;;19.70;44.50;;;;;;4540121;31;20152;-69
2022/04/02 11:48:59;;;;;;;1.55;0.50;;;19.80;44.20;;;;;;4540887;31;20084;-68
2022/04/02 11:51:28;;;;;;;5.45;0.40;;;19.90;44.00;;;;;;4539974;31;20229;-69
2022/04/02 11:54:07;;;;;;;4.43;0.55;;;20.10;43.80;;;;;;4540501;31;20164;-69
2022/04/02 11:56:36;;;;;;;2.00;0.47;;;20.20;43.50;;;;;;4540605;31;20071;-68
2022/04/02 11:59:07;;;;;;;2.47;0.57;;;20.30;43.20;;;;;;4540377;31;20496;-69
2022/04/02 12:01:43;;;;;;;1.38;0.30;;;20.40;42.90;;;;;;4540643;31;20064;-69
2022/04/02 12:04:15;;;;;;;1.33;0.40;;;20.50;42.70;;;;;;4540403;31;20126;-69
2022/04/02 12:06:43;;;;;;;4.95;0.40;;;20.60;42.40;;;;;;4540329;31;20512;-69
2022/04/02 12:09:15;;;;;;;1.63;0.43;;;20.60;42.10;;;;;;4539990;31;20120;-70
2022/04/02 12:12:03;;;;;;;1.40;0.32;;;20.70;41.70;;;;;;4540261;31;20074;-69
2022/04/02 12:14:36;;;;;;;1.70;0.85;;;20.80;41.60;;;;;;4540124;31;20136;-68
2022/04/02 12:17:09;;;;;;;4.07;0.75;;;20.80;41.40;;;;;;4539971;31;20084;-69
2022/04/02 12:19:55;;;;;;;1.80;0.45;;;20.90;41.30;;;;;;4540210;31;20199;-69
2022/04/02 12:22:26;;;;;;;2.22;0.55;;;20.90;41.30;;;;;;4526173;31;20092;-68
2022/04/02 12:24:57;;;;;;;3.00;0.70;;;21.10;41.10;;;;;;4525617;31;20173;-68
2022/04/02 12:27:28;;;;;;;6.55;0.90;;;21.10;40.40;;;;;;4523390;31;20222;-69
2022/04/02 12:29:56;;;;;;;1.63;0.40;;;21.20;39.90;;;;;;4524126;31;20076;-69
2022/04/02 12:32:37;;;;;;;2.33;0.50;;;21.20;39.30;;;;;;4509709;31;20206;-69
2022/04/02 12:35:09;;;;;;;2.13;0.85;;;21.20;38.70;;;;;;4523879;31;20069;-69
2022/04/02 12:37:50;;;;;;;2.20;0.65;;;21.10;38.60;;;;;;4509755;31;20391;-70
2022/04/02 12:40:25;;;;;;;4.72;0.60;;;21.10;38.80;;;;;;4496115;31;20405;-70
2022/04/02 12:42:54;;;;;;;3.28;0.50;;;21.00;38.90;;;;;;4509623;31;20115;-70
2022/04/02 12:45:23;;;;;;;3.33;0.55;;;20.90;38.90;;;;;;4523752;31;20133;-70
2022/04/02 12:47:56;;;;;;;7.57;0.77;;;20.80;39.10;;;;;;4523816;31;20096;-69
2022/04/02 12:50:22;;;;;;;2.63;0.60;;;20.80;39.40;;;;;;4522950;31;20100;-69
2022/04/02 12:52:50;;;;;;;5.03;0.60;;;20.70;39.70;;;;;;4509413;31;20149;-68
2022/04/02 12:55:27;;;;;;;3.17;0.45;;;20.70;39.90;;;;;;4510678;31;20094;-69
2022/04/02 12:57:59;;;;;;;6.63;0.80;;;20.60;40.10;;;;;;4537341;31;20417;-70
2022/04/02 13:00:30;;;;;;;6.28;0.90;;;20.50;40.30;;;;;;4538674;31;20082;-70
2022/04/02 13:03:02;;;;;;;6.53;0.52;;;20.50;40.60;;;;;;4537004;31;20084;-71
2022/04/02 13:05:46;;;;;;;3.45;0.32;;;20.40;40.80;;;;;;4537038;31;20076;-68
2022/04/02 13:08:23;;;;;;;2.80;0.45;;;20.40;42.00;;;;;;4535629;31;20276;-71